Time;durP1;ratioP1;P1;durP2;ratioP2;P2;SDS_P1;SDS_P2;PMS_P1;PMS_P2;Temp;Humidity;BMP_temperature;BMP_pressure;BME280_temperature;BME280_humidity;BME280_pressure;Samples;Min_cycle;Max_cycle;Signal;HPM_P1;HPM_P2
2022/03/09 00:00:53;;;;;;;7.10;4.77;;;;;;;;;;5048513;28;20181;-74
2022/03/09 00:03:19;;;;;;;7.40;4.93;;;;;;;;;;5030872;28;20273;-74
2022/03/09 00:05:44;;;;;;;6.13;4.60;;;;;;;;;;5033937;28;20182;-74
2022/03/09 00:08:09;;;;;;;6.97;5.20;;;;;;;;;;5032299;28;20182;-75
2022/03/09 00:10:34;;;;;;;6.73;4.97;;;;;;;;;;5030538;28;20256;-75
2022/03/09 00:13:00;;;;;;;6.50;5.43;;;;;;;;;;5033328;28;20293;-74
2022/03/09 00:15:25;;;;;;;6.87;5.10;;;;;;;;;;5034517;28;20177;-75
2022/03/09 00:17:50;;;;;;;7.40;4.80;;;;;;;;;;5036545;28;20182;-75
2022/03/09 00:20:15;;;;;;;7.43;4.93;;;;;;;;;;5050198;28;20184;-75
2022/03/09 00:22:41;;;;;;;8.23;5.00;;;;;;;;;;5033397;28;20225;-75
2022/03/09 00:25:06;;;;;;;8.17;5.93;;;;;;;;;;5030722;28;20200;-75
2022/03/09 00:27:31;;;;;;;7.77;5.17;;;;;;;;;;5031862;28;20185;-75
2022/03/09 00:29:56;;;;;;;7.37;5.30;;;;;;;;;;5047906;28;20174;-75
2022/03/09 00:32:22;;;;;;;7.67;4.87;;;;;;;;;;5033328;28;20181;-75
2022/03/09 00:34:47;;;;;;;9.13;5.33;;;;;;;;;;5033167;28;20186;-75
2022/03/09 00:37:12;;;;;;;6.90;4.97;;;;;;;;;;5046452;28;20182;-75
2022/03/09 00:39:37;;;;;;;6.10;4.30;;;;;;;;;;5040808;28;20209;-75
2022/03/09 00:42:02;;;;;;;7.80;4.83;;;;;;;;;;5052490;28;20200;-75
2022/03/09 00:44:28;;;;;;;9.87;5.27;;;;;;;;;;5033341;28;20181;-75
2022/03/09 00:46:53;;;;;;;6.20;4.57;;;;;;;;;;5051367;28;20176;-75
2022/03/09 00:49:18;;;;;;;7.80;5.00;;;;;;;;;;5052863;28;20261;-75
2022/03/09 00:51:44;;;;;;;5.47;4.90;;;;;;;;;;5034938;28;20276;-75
2022/03/09 00:54:09;;;;;;;10.60;6.27;;;;;;;;;;5034954;28;20177;-75
2022/03/09 00:56:34;;;;;;;8.77;5.30;;;;;;;;;;5032971;28;20196;-75
2022/03/09 00:58:59;;;;;;;6.47;4.67;;;;;;;;;;5031327;28;20186;-75
2022/03/09 01:01:24;;;;;;;8.73;4.97;;;;;;;;;;5037095;28;20186;-75
2022/03/09 01:03:50;;;;;;;6.20;4.83;;;;;;;;;;5030762;28;20281;-75
2022/03/09 01:06:15;;;;;;;7.80;5.60;;;;;;;;;;5051274;28;20170;-75
2022/03/09 01:08:40;;;;;;;5.93;4.80;;;;;;;;;;5049899;28;20181;-75
2022/03/09 01:11:06;;;;;;;8.83;6.03;;;;;;;;;;5032932;28;20227;-75
2022/03/09 01:13:31;;;;;;;7.17;5.27;;;;;;;;;;5038198;28;20186;-75
2022/03/09 01:15:56;;;;;;;6.57;4.57;;;;;;;;;;5033543;28;20211;-76
2022/03/09 01:18:21;;;;;;;7.27;5.10;;;;;;;;;;5041768;28;20177;-76
2022/03/09 01:20:46;;;;;;;5.67;4.70;;;;;;;;;;5035329;28;20177;-76
2022/03/09 01:23:12;;;;;;;6.80;5.23;;;;;;;;;;5029299;28;20206;-76
2022/03/09 01:25:37;;;;;;;9.57;5.27;;;;;;;;;;5031220;28;20185;-76
2022/03/09 01:28:02;;;;;;;7.90;4.77;;;;;;;;;;5056874;28;20301;-76
2022/03/09 01:30:27;;;;;;;9.87;5.23;;;;;;;;;;5056554;28;20191;-76
2022/03/09 01:32:53;;;;;;;9.53;5.17;;;;;;;;;;5043321;28;20177;-76
2022/03/09 01:35:18;;;;;;;8.70;4.93;;;;;;;;;;5043169;28;20187;-76
2022/03/09 01:37:45;;;;;;;6.13;4.70;;;;;;;;;;5039157;28;20182;-76
2022/03/09 01:40:11;;;;;;;7.80;5.37;;;;;;;;;;5041767;28;20196;-76
2022/03/09 01:42:36;;;;;;;8.50;5.13;;;;;;;;;;5051579;28;20288;-76
2022/03/09 01:45:02;;;;;;;8.97;5.77;;;;;;;;;;5037968;28;20335;-76
2022/03/09 01:47:28;;;;;;;8.37;5.80;;;;;;;;;;5037982;28;20263;-76
2022/03/09 01:49:53;;;;;;;7.43;5.53;;;;;;;;;;5054864;28;20303;-76
2022/03/09 01:52:18;;;;;;;7.27;5.03;;;;;;;;;;5038105;28;20194;-76
2022/03/09 01:54:44;;;;;;;8.07;6.07;;;;;;;;;;5036447;28;20505;-76
2022/03/09 01:57:09;;;;;;;7.63;5.50;;;;;;;;;;5042826;28;20271;-76
2022/03/09 01:59:34;;;;;;;7.47;4.93;;;;;;;;;;5037206;28;20188;-76
2022/03/09 02:02:00;;;;;;;7.43;5.10;;;;;;;;;;5034374;28;20280;-76
2022/03/09 02:04:25;;;;;;;8.57;5.97;;;;;;;;;;5037246;28;20242;-76
2022/03/09 02:06:50;;;;;;;7.80;5.03;;;;;;;;;;5044230;28;20225;-76
2022/03/09 02:11:59;;;;;;;8.03;5.77;;;;;;;;;;5057208;28;20203;-76
2022/03/09 02:14:24;;;;;;;8.07;5.30;;;;;;;;;;5037103;28;20175;-76
2022/03/09 02:16:50;;;;;;;7.75;5.18;;;;;;;;;;5049048;28;20194;-76
2022/03/09 02:19:15;;;;;;;7.07;5.33;;;;;;;;;;5040870;28;20197;-76
2022/03/09 02:21:40;;;;;;;6.57;4.63;;;;;;;;;;5054599;28;20198;-76
2022/03/09 02:24:05;;;;;;;8.20;5.23;;;;;;;;;;5037627;28;20212;-76
2022/03/09 02:26:31;;;;;;;6.07;4.53;;;;;;;;;;5038469;28;20181;-76
2022/03/09 02:28:56;;;;;;;7.37;5.33;;;;;;;;;;5036514;28;20174;-76
2022/03/09 02:31:21;;;;;;;8.53;5.13;;;;;;;;;;5050671;28;20183;-76
2022/03/09 02:33:46;;;;;;;7.60;5.20;;;;;;;;;;5053507;28;20209;-76
2022/03/09 02:36:11;;;;;;;7.50;4.73;;;;;;;;;;5061942;28;20179;-76
2022/03/09 02:38:37;;;;;;;9.63;4.97;;;;;;;;;;5048154;28;20181;-76
2022/03/09 02:41:02;;;;;;;7.77;4.83;;;;;;;;;;5037762;28;20277;-76
2022/03/09 02:43:27;;;;;;;5.57;4.33;;;;;;;;;;5030643;28;20458;-76
2022/03/09 02:45:52;;;;;;;6.57;4.77;;;;;;;;;;5036590;28;20180;-76
2022/03/09 02:48:17;;;;;;;6.77;5.03;;;;;;;;;;5053938;28;20188;-76
2022/03/09 02:50:43;;;;;;;6.57;4.90;;;;;;;;;;5054973;28;20201;-76
2022/03/09 02:53:08;;;;;;;6.60;4.93;;;;;;;;;;5034942;28;20304;-76
2022/03/09 02:55:33;;;;;;;8.90;5.80;;;;;;;;;;5036209;28;20193;-76
2022/03/09 02:57:58;;;;;;;9.87;5.67;;;;;;;;;;5035648;28;20212;-76
2022/03/09 03:00:23;;;;;;;7.47;5.43;;;;;;;;;;5034312;28;20297;-76
2022/03/09 03:02:49;;;;;;;6.97;5.47;;;;;;;;;;5048014;28;20201;-76
2022/03/09 03:05:14;;;;;;;8.33;5.60;;;;;;;;;;5035002;28;20203;-76
2022/03/09 03:07:39;;;;;;;7.57;5.37;;;;;;;;;;5033422;28;20182;-76
2022/03/09 03:10:05;;;;;;;7.97;5.73;;;;;;;;;;5033775;28;20227;-76
2022/03/09 03:12:30;;;;;;;7.10;5.13;;;;;;;;;;5036195;28;20197;-76
2022/03/09 03:14:56;;;;;;;8.37;6.23;;;;;;;;;;5033543;28;20248;-76
2022/03/09 03:17:21;;;;;;;7.93;5.70;;;;;;;;;;5051850;28;20170;-76
2022/03/09 03:19:46;;;;;;;7.17;5.70;;;;;;;;;;5033118;28;20185;-76
2022/03/09 03:22:11;;;;;;;7.13;4.80;;;;;;;;;;5032549;28;20204;-76
2022/03/09 03:24:36;;;;;;;9.13;6.43;;;;;;;;;;5036154;28;20241;-76
2022/03/09 03:27:02;;;;;;;7.87;5.50;;;;;;;;;;5033252;28;20181;-76
2022/03/09 03:29:27;;;;;;;7.67;5.87;;;;;;;;;;5033798;28;20226;-76
2022/03/09 03:31:52;;;;;;;7.00;5.07;;;;;;;;;;5033590;28;20214;-76
2022/03/09 03:34:17;;;;;;;8.50;5.83;;;;;;;;;;5052918;28;20209;-76
2022/03/09 03:36:42;;;;;;;8.13;5.50;;;;;;;;;;5050451;28;20213;-76
2022/03/09 03:39:08;;;;;;;8.50;4.93;;;;;;;;;;5031532;28;20217;-76
2022/03/09 03:41:34;;;;;;;7.33;5.07;;;;;;;;;;5039401;28;20195;-77
2022/03/09 03:43:59;;;;;;;6.33;5.37;;;;;;;;;;5033212;28;20194;-76
2022/03/09 03:46:24;;;;;;;7.97;5.87;;;;;;;;;;5035644;28;20190;-76
2022/03/09 03:48:49;;;;;;;7.97;5.50;;;;;;;;;;5052093;28;20178;-76
2022/03/09 03:51:15;;;;;;;10.43;5.03;;;;;;;;;;5035083;28;20358;-76
2022/03/09 03:53:40;;;;;;;8.70;5.47;;;;;;;;;;5033478;28;20189;-76
2022/03/09 03:56:05;;;;;;;7.37;5.57;;;;;;;;;;5052568;28;20272;-76
2022/03/09 03:58:30;;;;;;;7.93;5.17;;;;;;;;;;5053455;28;20191;-76
2022/03/09 04:00:56;;;;;;;7.07;5.30;;;;;;;;;;5030972;28;20179;-76
2022/03/09 04:03:21;;;;;;;10.67;6.13;;;;;;;;;;5033831;28;20199;-76
2022/03/09 04:05:46;;;;;;;9.20;5.30;;;;;;;;;;5033436;28;20187;-77
2022/03/09 04:08:11;;;;;;;7.47;5.53;;;;;;;;;;5033133;28;20180;-76
2022/03/09 04:10:36;;;;;;;6.23;4.70;;;;;;;;;;5053862;28;20302;-76
2022/03/09 04:13:04;;;;;;;7.40;5.30;;;;;;;;;;5033152;28;20188;-76
2022/03/09 04:15:29;;;;;;;11.37;6.17;;;;;;;;;;5032611;28;20183;-76
2022/03/09 04:17:55;;;;;;;12.93;7.30;;;;;;;;;;5050857;28;20179;-76
2022/03/09 04:20:20;;;;;;;9.83;6.03;;;;;;;;;;5032708;28;20184;-76
2022/03/09 04:22:45;;;;;;;9.23;5.77;;;;;;;;;;5051110;28;20211;-76
2022/03/09 04:25:10;;;;;;;8.60;6.00;;;;;;;;;;5032157;28;20211;-76
2022/03/09 04:27:36;;;;;;;8.90;5.97;;;;;;;;;;5033217;28;20273;-77
2022/03/09 04:30:01;;;;;;;9.33;5.70;;;;;;;;;;5032229;28;20261;-76
2022/03/09 04:32:27;;;;;;;9.70;7.00;;;;;;;;;;5030483;28;20191;-77
2022/03/09 04:34:52;;;;;;;10.37;5.97;;;;;;;;;;5053627;28;20201;-76
2022/03/09 04:37:18;;;;;;;11.53;6.53;;;;;;;;;;5047715;28;20569;-77
2022/03/09 04:39:43;;;;;;;9.13;5.83;;;;;;;;;;5030549;28;20187;-76
2022/03/09 04:42:08;;;;;;;10.13;5.97;;;;;;;;;;5032431;28;20203;-76
2022/03/09 04:44:34;;;;;;;10.30;6.37;;;;;;;;;;5048998;28;20191;-77
2022/03/09 04:46:59;;;;;;;13.77;7.40;;;;;;;;;;5047771;28;20171;-76
2022/03/09 04:49:24;;;;;;;9.67;6.60;;;;;;;;;;5034926;28;20183;-76
2022/03/09 04:51:49;;;;;;;9.67;6.13;;;;;;;;;;5036031;28;20272;-76
2022/03/09 04:54:14;;;;;;;11.00;6.80;;;;;;;;;;5029621;28;20210;-76
2022/03/09 04:56:40;;;;;;;9.67;6.83;;;;;;;;;;5045449;28;20194;-76
2022/03/09 04:59:05;;;;;;;11.47;7.17;;;;;;;;;;5049287;28;20179;-76
2022/03/09 05:01:30;;;;;;;9.83;7.00;;;;;;;;;;5047930;28;20228;-76
2022/03/09 05:03:55;;;;;;;12.20;7.50;;;;;;;;;;5031537;28;20196;-76
2022/03/09 05:06:21;;;;;;;11.67;6.73;;;;;;;;;;5033768;28;20213;-76
2022/03/09 05:08:46;;;;;;;12.17;6.17;;;;;;;;;;5035164;28;20179;-76
2022/03/09 05:11:11;;;;;;;10.93;6.90;;;;;;;;;;5053366;28;20231;-77
2022/03/09 05:13:36;;;;;;;10.60;6.40;;;;;;;;;;5036487;28;20176;-76
2022/03/09 05:16:02;;;;;;;10.77;6.63;;;;;;;;;;5031319;28;20183;-77
2022/03/09 05:18:28;;;;;;;12.60;6.97;;;;;;;;;;5032861;28;20188;-76
2022/03/09 05:20:53;;;;;;;9.77;6.80;;;;;;;;;;5031746;28;20183;-77
2022/03/09 05:23:18;;;;;;;10.83;6.57;;;;;;;;;;5031363;28;20291;-77
2022/03/09 05:25:43;;;;;;;10.47;6.43;;;;;;;;;;5046305;28;20180;-77
2022/03/09 05:28:08;;;;;;;10.00;6.67;;;;;;;;;;5048871;28;20179;-76
2022/03/09 05:30:34;;;;;;;10.07;7.00;;;;;;;;;;5044510;28;20179;-76
2022/03/09 05:32:59;;;;;;;10.93;7.80;;;;;;;;;;5031684;28;20190;-77
2022/03/09 05:35:24;;;;;;;10.97;7.13;;;;;;;;;;5031278;28;20206;-76
2022/03/09 05:37:49;;;;;;;12.83;7.83;;;;;;;;;;5049219;28;20308;-77
2022/03/09 05:40:14;;;;;;;14.37;8.57;;;;;;;;;;5027812;28;20194;-77
2022/03/09 05:42:41;;;;;;;10.17;7.27;;;;;;;;;;5028685;28;20203;-76
2022/03/09 05:45:06;;;;;;;10.17;6.47;;;;;;;;;;5031853;28;20197;-76
2022/03/09 05:47:31;;;;;;;10.97;7.50;;;;;;;;;;5046292;28;20183;-77
2022/03/09 05:49:57;;;;;;;14.27;7.03;;;;;;;;;;5047314;28;20186;-77
2022/03/09 05:52:22;;;;;;;9.00;6.00;;;;;;;;;;5031838;28;20191;-76
2022/03/09 05:54:47;;;;;;;12.20;6.73;;;;;;;;;;5022524;28;20179;-80
2022/03/09 05:57:13;;;;;;;10.20;6.63;;;;;;;;;;5031597;28;20204;-80
2022/03/09 05:59:38;;;;;;;9.60;5.97;;;;;;;;;;5031757;28;20179;-80
2022/03/09 06:02:03;;;;;;;11.67;6.20;;;;;;;;;;5031417;28;20194;-80
2022/03/09 06:04:28;;;;;;;9.90;5.80;;;;;;;;;;5033738;28;20202;-79
2022/03/09 06:06:54;;;;;;;9.57;5.93;;;;;;;;;;5050368;28;20172;-80
2022/03/09 06:09:19;;;;;;;9.17;7.00;;;;;;;;;;5032649;28;20254;-80
2022/03/09 06:11:44;;;;;;;10.70;6.40;;;;;;;;;;5040846;28;20180;-80
2022/03/09 06:14:09;;;;;;;11.40;6.23;;;;;;;;;;5037809;28;20214;-80
2022/03/09 06:16:36;;;;;;;13.83;9.50;;;;;;;;;;5036805;28;20174;-80
2022/03/09 06:19:01;;;;;;;12.30;9.17;;;;;;;;;;5045285;28;20214;-79
2022/03/09 06:21:26;;;;;;;14.23;8.80;;;;;;;;;;5035554;28;20217;-79
2022/03/09 06:23:51;;;;;;;8.90;6.40;;;;;;;;;;5027260;28;20202;-80
2022/03/09 06:26:16;;;;;;;10.27;6.93;;;;;;;;;;5037564;28;20232;-79
2022/03/09 06:28:41;;;;;;;8.27;6.33;;;;;;;;;;5033071;28;20172;-79
2022/03/09 06:31:07;;;;;;;13.50;8.23;;;;;;;;;;5038002;28;20179;-80
2022/03/09 06:33:32;;;;;;;18.90;11.63;;;;;;;;;;5052057;28;20265;-79
2022/03/09 06:35:57;;;;;;;18.03;10.77;;;;;;;;;;5036583;28;20178;-79
2022/03/09 06:38:23;;;;;;;15.97;9.87;;;;;;;;;;5047595;28;20179;-79
2022/03/09 06:40:48;;;;;;;12.77;7.30;;;;;;;;;;5033004;28;20181;-79
2022/03/09 06:43:13;;;;;;;10.73;6.87;;;;;;;;;;5033651;28;20284;-79
2022/03/09 06:45:38;;;;;;;15.33;8.63;;;;;;;;;;5036191;28;20581;-79
2022/03/09 06:48:04;;;;;;;8.90;7.27;;;;;;;;;;5033393;28;20167;-79
2022/03/09 06:50:30;;;;;;;16.53;9.17;;;;;;;;;;5059474;28;20189;-79
2022/03/09 06:52:55;;;;;;;16.70;10.20;;;;;;;;;;5038143;28;20174;-79
2022/03/09 06:55:20;;;;;;;19.50;8.57;;;;;;;;;;5034851;28;20174;-79
2022/03/09 06:57:46;;;;;;;14.70;8.67;;;;;;;;;;5037462;28;20232;-80
2022/03/09 07:00:14;;;;;;;15.53;9.20;;;;;;;;;;5038646;28;20217;-79
2022/03/09 07:02:39;;;;;;;16.30;9.77;;;;;;;;;;5038294;28;20198;-79
2022/03/09 07:05:05;;;;;;;21.07;12.07;;;;;;;;;;5038101;28;20269;-79
2022/03/09 07:07:32;;;;;;;21.40;11.63;;;;;;;;;;5039215;28;20172;-79
2022/03/09 07:09:57;;;;;;;14.83;8.57;;;;;;;;;;5030464;28;20238;-79
2022/03/09 07:12:22;;;;;;;19.67;10.60;;;;;;;;;;5033416;28;20178;-79
2022/03/09 07:14:47;;;;;;;16.10;10.37;;;;;;;;;;5030369;28;20232;-80
2022/03/09 07:17:13;;;;;;;13.57;8.50;;;;;;;;;;5050838;28;20255;-80
2022/03/09 07:19:38;;;;;;;12.13;7.60;;;;;;;;;;5053391;28;20337;-80
2022/03/09 07:22:03;;;;;;;10.37;6.53;;;;;;;;;;5040481;28;20205;-80
2022/03/09 07:24:28;;;;;;;11.00;6.67;;;;;;;;;;5047303;28;20179;-80
2022/03/09 07:26:56;;;;;;;8.70;6.47;;;;;;;;;;5032524;28;20182;-80
2022/03/09 07:29:21;;;;;;;10.13;5.57;;;;;;;;;;5033414;28;20178;-80
2022/03/09 07:31:46;;;;;;;10.17;5.73;;;;;;;;;;5032676;28;20179;-80
2022/03/09 07:34:11;;;;;;;6.83;4.70;;;;;;;;;;5032541;28;20207;-80
2022/03/09 07:36:37;;;;;;;8.23;5.07;;;;;;;;;;5034102;28;20186;-80
2022/03/09 07:39:02;;;;;;;8.53;5.77;;;;;;;;;;5051264;28;20371;-78
2022/03/09 07:41:27;;;;;;;7.67;4.73;;;;;;;;;;5033971;28;20246;-78
2022/03/09 07:43:52;;;;;;;9.17;5.73;;;;;;;;;;5052663;28;20227;-78
2022/03/09 07:46:18;;;;;;;8.87;5.53;;;;;;;;;;5034309;28;20234;-77
2022/03/09 07:48:43;;;;;;;9.33;5.57;;;;;;;;;;5035298;28;20253;-77
2022/03/09 07:51:08;;;;;;;12.87;8.20;;;;;;;;;;5034697;28;20174;-77
2022/03/09 07:53:33;;;;;;;11.30;6.13;;;;;;;;;;5053778;28;20240;-77
2022/03/09 07:55:59;;;;;;;9.90;6.60;;;;;;;;;;5033096;28;20172;-77
2022/03/09 07:58:24;;;;;;;8.83;6.50;;;;;;;;;;5032389;28;20188;-76
2022/03/09 08:00:49;;;;;;;10.90;6.20;;;;;;;;;;5032936;28;20187;-77
2022/03/09 08:03:14;;;;;;;11.10;5.93;;;;;;;;;;5034074;28;20206;-77
2022/03/09 08:05:39;;;;;;;10.27;5.57;;;;;;;;;;5035246;28;20271;-77
2022/03/09 08:08:05;;;;;;;9.07;5.60;;;;;;;;;;5033714;28;20167;-77
2022/03/09 08:10:30;;;;;;;10.83;5.63;;;;;;;;;;5028900;28;20257;-77
2022/03/09 08:12:55;;;;;;;8.60;4.67;;;;;;;;;;5029694;28;20190;-78
2022/03/09 08:15:20;;;;;;;6.23;4.90;;;;;;;;;;5046493;28;20188;-78
2022/03/09 08:17:45;;;;;;;7.70;5.00;;;;;;;;;;5029016;28;20183;-78
2022/03/09 08:20:12;;;;;;;7.67;4.47;;;;;;;;;;5026337;28;20186;-78
2022/03/09 08:22:39;;;;;;;8.53;4.23;;;;;;;;;;5029322;28;20190;-78
2022/03/09 08:25:04;;;;;;;5.47;4.13;;;;;;;;;;5028912;28;20174;-78
2022/03/09 08:27:29;;;;;;;6.93;4.80;;;;;;;;;;5028908;28;20175;-78
2022/03/09 08:29:55;;;;;;;7.07;4.60;;;;;;;;;;5024436;28;20186;-78
2022/03/09 08:32:20;;;;;;;5.90;3.23;;;;;;;;;;5031844;28;20185;-78
2022/03/09 08:34:45;;;;;;;8.73;4.83;;;;;;;;;;5029460;28;20241;-78
2022/03/09 08:37:11;;;;;;;6.77;4.13;;;;;;;;;;5031598;28;20179;-78
2022/03/09 08:39:36;;;;;;;6.33;5.27;;;;;;;;;;5023977;28;20194;-79
2022/03/09 08:42:01;;;;;;;7.83;5.80;;;;;;;;;;5030692;28;20206;-79
2022/03/09 08:44:26;;;;;;;9.07;5.57;;;;;;;;;;5029577;28;20183;-79
2022/03/09 08:46:53;;;;;;;11.80;6.80;;;;;;;;;;5030631;28;20174;-79
2022/03/09 08:49:18;;;;;;;8.90;6.00;;;;;;;;;;5028664;28;20179;-79
2022/03/09 08:51:44;;;;;;;11.63;6.33;;;;;;;;;;5031095;28;20236;-79
2022/03/09 08:54:09;;;;;;;9.50;5.97;;;;;;;;;;5028195;28;20193;-79
2022/03/09 08:56:34;;;;;;;14.10;6.30;;;;;;;;;;5024108;28;20186;-80
2022/03/09 08:58:59;;;;;;;9.87;6.50;;;;;;;;;;5045290;28;20175;-79
2022/03/09 09:01:25;;;;;;;8.10;5.20;;;;;;;;;;5028637;28;20167;-79
2022/03/09 09:03:50;;;;;;;8.80;5.13;;;;;;;;;;5020400;28;20217;-78
2022/03/09 09:06:15;;;;;;;7.97;5.63;;;;;;;;;;5033094;28;20174;-79
2022/03/09 09:08:41;;;;;;;9.43;6.10;;;;;;;;;;5028792;28;20186;-79
2022/03/09 09:11:06;;;;;;;10.30;6.10;;;;;;;;;;5029754;28;20226;-78
2022/03/09 09:13:31;;;;;;;8.93;6.20;;;;;;;;;;5034069;28;20174;-78
2022/03/09 09:15:57;;;;;;;8.37;5.40;;;;;;;;;;5033951;28;20174;-78
2022/03/09 09:18:22;;;;;;;8.87;6.10;;;;;;;;;;5053760;28;20178;-77
2022/03/09 09:20:48;;;;;;;11.17;7.33;;;;;;;;;;5034314;28;20253;-77
2022/03/09 09:23:13;;;;;;;8.10;5.70;;;;;;;;;;5031757;28;20267;-77
2022/03/09 09:25:38;;;;;;;10.83;6.73;;;;;;;;;;5036113;28;20174;-77
2022/03/09 09:28:03;;;;;;;12.20;6.47;;;;;;;;;;5049027;28;20230;-77
2022/03/09 09:30:30;;;;;;;11.20;7.23;;;;;;;;;;5049500;28;20170;-77
2022/03/09 09:32:56;;;;;;;8.47;5.87;;;;;;;;;;5055613;28;20185;-76
2022/03/09 09:35:21;;;;;;;9.83;6.37;;;;;;;;;;5020776;28;20178;-77
2022/03/09 09:37:46;;;;;;;11.83;7.40;;;;;;;;;;5051725;28;20330;-76
2022/03/09 09:40:13;;;;;;;12.63;6.87;;;;;;;;;;5030742;28;20178;-77
2022/03/09 09:42:38;;;;;;;8.03;6.20;;;;;;;;;;5051516;28;20194;-76
2022/03/09 09:45:04;;;;;;;10.63;7.70;;;;;;;;;;5031719;28;20189;-76
2022/03/09 09:47:30;;;;;;;11.53;6.87;;;;;;;;;;5033931;28;20177;-76
2022/03/09 09:49:56;;;;;;;9.37;7.10;;;;;;;;;;5053953;28;20190;-76
2022/03/09 09:52:24;;;;;;;11.73;7.00;;;;;;;;;;5048480;28;20184;-76
2022/03/09 09:54:50;;;;;;;10.07;6.93;;;;;;;;;;5037864;28;20181;-76
2022/03/09 09:57:15;;;;;;;11.30;7.03;;;;;;;;;;5035936;28;20212;-76
2022/03/09 09:59:41;;;;;;;12.03;7.40;;;;;;;;;;5056140;28;20174;-76
2022/03/09 10:02:07;;;;;;;8.10;5.80;;;;;;;;;;5035277;28;20244;-75
2022/03/09 10:04:32;;;;;;;9.73;6.67;;;;;;;;;;5055242;28;20202;-75
2022/03/09 10:06:57;;;;;;;7.97;5.70;;;;;;;;;;5035395;28;20185;-75
2022/03/09 10:09:22;;;;;;;9.50;6.50;;;;;;;;;;5052075;28;20218;-76
2022/03/09 10:11:49;;;;;;;8.97;6.20;;;;;;;;;;5035618;28;20178;-74
2022/03/09 10:14:15;;;;;;;7.67;5.37;;;;;;;;;;5051650;28;20197;-75
2022/03/09 10:16:59;;;;;;;9.13;5.87;;;;;;;;;;5053967;28;20174;-75
2022/03/09 10:19:32;;;;;;;10.20;7.10;;;;;;;;;;5034359;28;20234;-75
2022/03/09 10:21:57;;;;;;;11.33;6.97;;;;;;;;;;5033981;28;20200;-75
2022/03/09 10:24:32;;;;;;;12.60;7.47;;;;;;;;;;5051751;28;20328;-75
2022/03/09 10:26:57;;;;;;;10.03;7.30;;;;;;;;;;5049476;28;20245;-75
2022/03/09 10:29:23;;;;;;;12.83;6.80;;;;;;;;;;5035082;28;20201;-74
2022/03/09 10:31:49;;;;;;;9.60;7.20;;;;;;;;;;5036103;28;20232;-74
2022/03/09 10:34:18;;;;;;;9.63;6.23;;;;;;;;;;5037721;28;20179;-75
2022/03/09 10:37:03;;;;;;;10.20;6.70;;;;;;;;;;5052215;28;20179;-75
2022/03/09 10:39:30;;;;;;;10.13;6.33;;;;;;;;;;5034893;28;20317;-74
2022/03/09 10:41:58;;;;;;;11.90;5.67;;;;;;;;;;5035479;28;20205;-75
2022/03/09 10:44:42;;;;;;;8.07;5.80;;;;;;;;;;5036411;28;20199;-74
2022/03/09 10:47:08;;;;;;;9.10;6.50;;;;;;;;;;5056899;28;20214;-74
2022/03/09 10:49:34;;;;;;;8.93;5.93;;;;;;;;;;5035589;28;20282;-74
2022/03/09 10:52:00;;;;;;;7.10;4.23;;;;;;;;;;5035780;28;20186;-74
2022/03/09 10:54:26;;;;;;;20.33;13.07;;;;;;;;;;5036069;28;20170;-75
2022/03/09 10:57:11;;;;;;;10.77;6.10;;;;;;;;;;5052177;28;20179;-74
2022/03/09 10:59:43;;;;;;;8.17;6.13;;;;;;;;;;5029370;28;20200;-74
2022/03/09 11:02:09;;;;;;;9.43;6.23;;;;;;;;;;5048327;28;20284;-74
2022/03/09 11:04:35;;;;;;;7.50;4.17;;;;;;;;;;5040758;28;20200;-74
2022/03/09 11:07:01;;;;;;;11.57;6.63;;;;;;;;;;5034207;28;20187;-74
2022/03/09 11:09:26;;;;;;;9.53;6.57;;;;;;;;;;5033477;28;20225;-74
2022/03/09 11:11:51;;;;;;;10.53;6.33;;;;;;;;;;5052751;28;20197;-74
2022/03/09 11:14:18;;;;;;;9.93;6.70;;;;;;;;;;5051162;28;20181;-75
2022/03/09 11:16:43;;;;;;;11.27;6.43;;;;;;;;;;5034412;28;20196;-74
2022/03/09 11:19:13;;;;;;;8.97;5.73;;;;;;;;;;5051749;28;20173;-74
2022/03/09 11:21:40;;;;;;;8.87;6.23;;;;;;;;;;5034321;28;20205;-74
2022/03/09 11:24:07;;;;;;;10.90;6.77;;;;;;;;;;5059982;28;20226;-74
2022/03/09 11:26:33;;;;;;;11.10;7.10;;;;;;;;;;5054434;28;20195;-74
2022/03/09 11:29:00;;;;;;;10.47;7.10;;;;;;;;;;5054712;28;20180;-74
2022/03/09 11:31:40;;;;;;;9.83;6.37;;;;;;;;;;5034961;28;20180;-75
2022/03/09 11:34:05;;;;;;;9.30;7.13;;;;;;;;;;5035624;28;20184;-74
2022/03/09 11:36:33;;;;;;;11.93;7.50;;;;;;;;;;5034381;28;20214;-74
2022/03/09 11:39:04;;;;;;;12.07;7.57;;;;;;;;;;5032121;28;20549;-75
2022/03/09 11:41:35;;;;;;;8.17;5.10;;;;;;;;;;5036074;28;20179;-74
2022/03/09 11:44:19;;;;;;;12.03;7.43;;;;;;;;;;5029878;28;20188;-74
2022/03/09 11:46:59;;;;;;;10.17;6.87;;;;;;;;;;5052043;28;20217;-74
2022/03/09 11:49:45;;;;;;;10.53;6.67;;;;;;;;;;5033299;28;20184;-74
2022/03/09 11:52:12;;;;;;;9.67;6.93;;;;;;;;;;5054311;28;20186;-74
2022/03/09 11:54:40;;;;;;;12.70;8.63;;;;;;;;;;5034893;28;20182;-74
2022/03/09 11:57:07;;;;;;;12.23;8.17;;;;;;;;;;5033932;28;20253;-74
2022/03/09 11:59:32;;;;;;;14.13;8.37;;;;;;;;;;5032528;28;20174;-74
2022/03/09 12:01:58;;;;;;;15.47;8.27;;;;;;;;;;5040488;28;20254;-74
2022/03/09 12:04:50;;;;;;;14.17;8.63;;;;;;;;;;5041442;28;20203;-74
2022/03/09 12:07:38;;;;;;;12.40;7.60;;;;;;;;;;5048839;28;20179;-75
2022/03/09 12:10:08;;;;;;;12.97;7.90;;;;;;;;;;5045608;28;20230;-74
2022/03/09 12:12:34;;;;;;;10.80;7.60;;;;;;;;;;5022206;28;20336;-74
2022/03/09 12:15:13;;;;;;;12.30;8.70;;;;;;;;;;5027040;28;20186;-74
2022/03/09 12:17:39;;;;;;;11.83;8.17;;;;;;;;;;5033908;28;20211;-74
2022/03/09 12:20:25;;;;;;;11.43;8.10;;;;;;;;;;5052973;28;20300;-74
2022/03/09 12:22:56;;;;;;;14.30;8.17;;;;;;;;;;5024000;28;20236;-74
2022/03/09 12:25:35;;;;;;;12.17;8.50;;;;;;;;;;5047035;28;20182;-74
2022/03/09 12:28:19;;;;;;;11.17;7.63;;;;;;;;;;5051252;28;20187;-74
2022/03/09 12:30:47;;;;;;;10.43;7.80;;;;;;;;;;5050628;28;20418;-75
2022/03/09 12:33:19;;;;;;;14.53;9.07;;;;;;;;;;5037024;28;20178;-74
2022/03/09 12:35:44;;;;;;;10.27;7.67;;;;;;;;;;5034568;28;20184;-74
2022/03/09 12:38:10;;;;;;;23.73;9.97;;;;;;;;;;5032261;28;20197;-75
2022/03/09 12:40:35;;;;;;;13.87;8.73;;;;;;;;;;5049756;28;20219;-74
2022/03/09 12:43:00;;;;;;;13.60;8.13;;;;;;;;;;5037032;28;20259;-74
2022/03/09 12:45:26;;;;;;;10.17;7.50;;;;;;;;;;5050133;28;20186;-74
2022/03/09 12:47:54;;;;;;;11.20;7.60;;;;;;;;;;5050411;28;20178;-74
2022/03/09 12:50:22;;;;;;;15.13;9.30;;;;;;;;;;5050530;28;20240;-75
2022/03/09 12:52:48;;;;;;;13.90;9.77;;;;;;;;;;5033122;28;20503;-74
2022/03/09 12:55:16;;;;;;;11.67;9.03;;;;;;;;;;5050142;28;20221;-74
2022/03/09 12:57:41;;;;;;;12.97;8.53;;;;;;;;;;5032598;28;20211;-74
2022/03/09 13:00:10;;;;;;;13.27;9.03;;;;;;;;;;5048516;28;20178;-75
2022/03/09 13:02:43;;;;;;;43.50;22.40;;;;;;;;;;5050011;28;20197;-75
2022/03/09 13:05:09;;;;;;;14.87;8.40;;;;;;;;;;5039757;28;20206;-74
2022/03/09 13:07:34;;;;;;;12.73;8.47;;;;;;;;;;5051693;28;20175;-74
2022/03/09 13:10:04;;;;;;;14.43;9.17;;;;;;;;;;5031331;28;20223;-74
2022/03/09 13:12:29;;;;;;;14.00;9.27;;;;;;;;;;5037933;28;20174;-74
2022/03/09 13:14:54;;;;;;;14.43;8.93;;;;;;;;;;5051969;28;20205;-74
2022/03/09 13:17:19;;;;;;;13.47;9.70;;;;;;;;;;5047319;28;20216;-74
2022/03/09 13:19:45;;;;;;;12.97;8.70;;;;;;;;;;5057183;28;20176;-74
2022/03/09 13:22:10;;;;;;;11.90;7.73;;;;;;;;;;5033517;28;20202;-75
2022/03/09 13:24:35;;;;;;;13.37;9.43;;;;;;;;;;5048130;28;20181;-74
2022/03/09 13:27:12;;;;;;;15.20;9.63;;;;;;;;;;5046331;28;20254;-74
2022/03/09 13:29:41;;;;;;;12.27;8.23;;;;;;;;;;5048855;28;20183;-74
2022/03/09 13:32:06;;;;;;;15.43;9.43;;;;;;;;;;5032294;28;20330;-74
2022/03/09 13:34:34;;;;;;;14.53;9.20;;;;;;;;;;5033147;28;20197;-75
2022/03/09 13:37:06;;;;;;;13.37;9.63;;;;;;;;;;5049749;28;20176;-74
2022/03/09 13:39:39;;;;;;;15.63;9.57;;;;;;;;;;5046753;28;20209;-74
2022/03/09 13:42:05;;;;;;;13.53;9.80;;;;;;;;;;5037007;28;20202;-74
2022/03/09 13:44:31;;;;;;;11.33;9.23;;;;;;;;;;5031578;28;20221;-74
2022/03/09 13:46:59;;;;;;;14.67;10.50;;;;;;;;;;5049024;28;20179;-74
2022/03/09 13:49:24;;;;;;;14.73;9.37;;;;;;;;;;5056155;28;20207;-75
2022/03/09 13:51:50;;;;;;;12.73;8.13;;;;;;;;;;5032686;28;20223;-74
2022/03/09 13:54:20;;;;;;;13.67;9.30;;;;;;;;;;5031186;28;20171;-74
2022/03/09 13:56:58;;;;;;;15.23;10.40;;;;;;;;;;5050492;28;20188;-75
2022/03/09 13:59:42;;;;;;;15.73;9.50;;;;;;;;;;5030542;28;20199;-74
2022/03/09 14:02:26;;;;;;;14.87;9.70;;;;;;;;;;5049500;28;20226;-74
2022/03/09 14:04:52;;;;;;;15.10;9.60;;;;;;;;;;5032451;28;20197;-76
2022/03/09 14:07:18;;;;;;;12.20;9.83;;;;;;;;;;5024435;28;20192;-74
2022/03/09 14:10:02;;;;;;;16.13;10.20;;;;;;;;;;5030476;28;20226;-74
2022/03/09 14:12:27;;;;;;;13.67;9.60;;;;;;;;;;5048366;28;20205;-74
2022/03/09 14:14:53;;;;;;;13.13;9.53;;;;;;;;;;5047675;28;20214;-74
2022/03/09 14:17:18;;;;;;;14.67;10.03;;;;;;;;;;5048418;28;20187;-74
2022/03/09 14:19:43;;;;;;;12.30;8.73;;;;;;;;;;5052008;28;20207;-74
2022/03/09 14:22:08;;;;;;;16.77;10.33;;;;;;;;;;5028763;28;20344;-74
2022/03/09 14:24:33;;;;;;;12.50;10.17;;;;;;;;;;5038931;28;20258;-74
2022/03/09 14:26:59;;;;;;;13.73;9.80;;;;;;;;;;5047797;28;20181;-74
2022/03/09 14:29:25;;;;;;;16.53;10.50;;;;;;;;;;5029704;28;20181;-74
2022/03/09 14:31:51;;;;;;;12.97;9.97;;;;;;;;;;5030048;28;20180;-74
2022/03/09 14:34:18;;;;;;;13.10;9.27;;;;;;;;;;5031348;28;20181;-74